sensor_id;sensor_type;location;lat;lon;timestamp;P1;durP1;ratioP1;P2;durP2;ratioP2
59054;SDS011;44845;51.444;7.460;2023-04-03T00:00:50;4.97;;;1.65;;
59054;SDS011;44845;51.444;7.460;2023-04-03T00:03:17;3.20;;;1.70;;
59054;SDS011;44845;51.444;7.460;2023-04-03T00:05:43;3.38;;;1.20;;
59054;SDS011;44845;51.444;7.460;2023-04-03T00:08:08;5.47;;;1.17;;
59054;SDS011;44845;51.444;7.460;2023-04-03T00:10:34;2.35;;;0.90;;
59054;SDS011;44845;51.444;7.460;2023-04-03T00:13:01;2.72;;;1.15;;
59054;SDS011;44845;51.444;7.460;2023-04-03T00:15:27;3.50;;;1.23;;
59054;SDS011;44845;51.444;7.460;2023-04-03T00:17:53;3.55;;;1.30;;
59054;SDS011;44845;51.444;7.460;2023-04-03T00:20:18;2.88;;;1.00;;
59054;SDS011;44845;51.444;7.460;2023-04-03T00:22:43;2.53;;;1.10;;
59054;SDS011;44845;51.444;7.460;2023-04-03T00:25:09;4.22;;;1.30;;
59054;SDS011;44845;51.444;7.460;2023-04-03T00:27:36;3.13;;;1.50;;
59054;SDS011;44845;51.444;7.460;2023-04-03T00:30:05;1.90;;;1.10;;
59054;SDS011;44845;51.444;7.460;2023-04-03T00:32:31;4.75;;;1.50;;
59054;SDS011;44845;51.444;7.460;2023-04-03T00:34:57;2.00;;;1.13;;
59054;SDS011;44845;51.444;7.460;2023-04-03T00:37:23;2.33;;;1.20;;
59054;SDS011;44845;51.444;7.460;2023-04-03T00:39:48;6.25;;;1.42;;
59054;SDS011;44845;51.444;7.460;2023-04-03T00:42:13;2.60;;;1.50;;
59054;SDS011;44845;51.444;7.460;2023-04-03T00:47:05;2.88;;;1.40;;
59054;SDS011;44845;51.444;7.460;2023-04-03T00:49:33;5.32;;;1.40;;
59054;SDS011;44845;51.444;7.460;2023-04-03T00:51:59;7.55;;;1.83;;
59054;SDS011;44845;51.444;7.460;2023-04-03T00:54:25;2.35;;;1.20;;
59054;SDS011;44845;51.444;7.460;2023-04-03T00:56:51;4.82;;;1.70;;
59054;SDS011;44845;51.444;7.460;2023-04-03T00:59:20;5.20;;;1.63;;
59054;SDS011;44845;51.444;7.460;2023-04-03T01:01:51;5.28;;;1.60;;
59054;SDS011;44845;51.444;7.460;2023-04-03T01:04:30;4.35;;;1.60;;
59054;SDS011;44845;51.444;7.460;2023-04-03T01:06:57;4.03;;;1.55;;
59054;SDS011;44845;51.444;7.460;2023-04-03T01:09:30;3.10;;;1.60;;
59054;SDS011;44845;51.444;7.460;2023-04-03T01:14:46;4.07;;;1.63;;
59054;SDS011;44845;51.444;7.460;2023-04-03T01:25:37;3.67;;;1.70;;
59054;SDS011;44845;51.444;7.460;2023-04-03T01:28:08;4.20;;;1.52;;
59054;SDS011;44845;51.444;7.460;2023-04-03T01:30:51;4.57;;;1.45;;
59054;SDS011;44845;51.444;7.460;2023-04-03T01:33:23;4.03;;;1.33;;
59054;SDS011;44845;51.444;7.460;2023-04-03T01:35:49;2.08;;;1.10;;
59054;SDS011;44845;51.444;7.460;2023-04-03T01:38:14;2.97;;;1.20;;
59054;SDS011;44845;51.444;7.460;2023-04-03T01:40:41;3.38;;;1.10;;
59054;SDS011;44845;51.444;7.460;2023-04-03T01:43:06;3.35;;;1.20;;
59054;SDS011;44845;51.444;7.460;2023-04-03T01:45:31;2.97;;;1.10;;
59054;SDS011;44845;51.444;7.460;2023-04-03T01:47:57;7.57;;;1.10;;
59054;SDS011;44845;51.444;7.460;2023-04-03T01:50:22;2.67;;;1.17;;
59054;SDS011;44845;51.444;7.460;2023-04-03T01:52:49;3.63;;;1.20;;
59054;SDS011;44845;51.444;7.460;2023-04-03T01:55:14;3.70;;;1.52;;
59054;SDS011;44845;51.444;7.460;2023-04-03T01:57:40;3.35;;;0.90;;
59054;SDS011;44845;51.444;7.460;2023-04-03T02:00:05;5.15;;;1.15;;
59054;SDS011;44845;51.444;7.460;2023-04-03T02:02:32;3.92;;;1.23;;
59054;SDS011;44845;51.444;7.460;2023-04-03T02:04:58;3.72;;;0.90;;
59054;SDS011;44845;51.444;7.460;2023-04-03T02:07:23;7.28;;;1.10;;
59054;SDS011;44845;51.444;7.460;2023-04-03T02:09:48;2.42;;;0.88;;
59054;SDS011;44845;51.444;7.460;2023-04-03T02:12:14;3.85;;;0.90;;
59054;SDS011;44845;51.444;7.460;2023-04-03T02:14:39;3.70;;;1.00;;
59054;SDS011;44845;51.444;7.460;2023-04-03T02:17:05;3.78;;;1.10;;
59054;SDS011;44845;51.444;7.460;2023-04-03T02:19:33;3.95;;;0.80;;
59054;SDS011;44845;51.444;7.460;2023-04-03T02:22:00;2.75;;;0.77;;
59054;SDS011;44845;51.444;7.460;2023-04-03T02:24:25;2.45;;;0.90;;
59054;SDS011;44845;51.444;7.460;2023-04-03T02:26:51;1.38;;;0.90;;
59054;SDS011;44845;51.444;7.460;2023-04-03T02:29:16;3.42;;;1.05;;
59054;SDS011;44845;51.444;7.460;2023-04-03T02:31:41;4.00;;;1.17;;
59054;SDS011;44845;51.444;7.460;2023-04-03T02:34:07;1.63;;;0.57;;
59054;SDS011;44845;51.444;7.460;2023-04-03T02:36:32;3.53;;;0.85;;
59054;SDS011;44845;51.444;7.460;2023-04-03T02:38:57;2.88;;;0.82;;
59054;SDS011;44845;51.444;7.460;2023-04-03T02:41:23;5.15;;;1.20;;
59054;SDS011;44845;51.444;7.460;2023-04-03T02:43:50;2.60;;;0.90;;
59054;SDS011;44845;51.444;7.460;2023-04-03T02:46:15;5.03;;;0.80;;
59054;SDS011;44845;51.444;7.460;2023-04-03T02:48:41;3.83;;;1.00;;
59054;SDS011;44845;51.444;7.460;2023-04-03T02:51:06;3.65;;;0.98;;
59054;SDS011;44845;51.444;7.460;2023-04-03T02:53:31;2.15;;;0.90;;
59054;SDS011;44845;51.444;7.460;2023-04-03T02:55:57;4.80;;;1.08;;
59054;SDS011;44845;51.444;7.460;2023-04-03T02:58:22;4.93;;;1.17;;
59054;SDS011;44845;51.444;7.460;2023-04-03T03:00:47;3.28;;;1.10;;
59054;SDS011;44845;51.444;7.460;2023-04-03T03:03:13;7.60;;;1.10;;
59054;SDS011;44845;51.444;7.460;2023-04-03T03:05:39;4.53;;;0.98;;
59054;SDS011;44845;51.444;7.460;2023-04-03T03:08:04;3.72;;;1.15;;
59054;SDS011;44845;51.444;7.460;2023-04-03T03:10:30;2.50;;;0.85;;
59054;SDS011;44845;51.444;7.460;2023-04-03T03:12:55;3.65;;;0.98;;
59054;SDS011;44845;51.444;7.460;2023-04-03T03:15:21;2.47;;;0.82;;
59054;SDS011;44845;51.444;7.460;2023-04-03T03:17:46;5.05;;;1.17;;
59054;SDS011;44845;51.444;7.460;2023-04-03T03:20:12;4.90;;;1.08;;
59054;SDS011;44845;51.444;7.460;2023-04-03T03:22:40;2.78;;;1.10;;
59054;SDS011;44845;51.444;7.460;2023-04-03T03:25:05;4.72;;;1.27;;
59054;SDS011;44845;51.444;7.460;2023-04-03T03:27:30;3.17;;;0.98;;
59054;SDS011;44845;51.444;7.460;2023-04-03T03:29:56;3.30;;;0.95;;
59054;SDS011;44845;51.444;7.460;2023-04-03T03:32:21;3.95;;;1.50;;
59054;SDS011;44845;51.444;7.460;2023-04-03T03:34:47;3.03;;;0.93;;
59054;SDS011;44845;51.444;7.460;2023-04-03T03:37:12;7.15;;;1.00;;
59054;SDS011;44845;51.444;7.460;2023-04-03T03:39:37;3.67;;;1.15;;
59054;SDS011;44845;51.444;7.460;2023-04-03T03:42:03;3.22;;;1.35;;
59054;SDS011;44845;51.444;7.460;2023-04-03T03:44:28;4.93;;;1.02;;
59054;SDS011;44845;51.444;7.460;2023-04-03T03:46:54;6.22;;;1.27;;
59054;SDS011;44845;51.444;7.460;2023-04-03T03:49:20;2.78;;;1.13;;
59054;SDS011;44845;51.444;7.460;2023-04-03T03:51:45;2.85;;;0.90;;
59054;SDS011;44845;51.444;7.460;2023-04-03T03:54:11;4.10;;;1.00;;
59054;SDS011;44845;51.444;7.460;2023-04-03T03:56:37;5.28;;;0.90;;
59054;SDS011;44845;51.444;7.460;2023-04-03T03:59:03;3.08;;;1.15;;
59054;SDS011;44845;51.444;7.460;2023-04-03T04:01:28;7.57;;;1.73;;
59054;SDS011;44845;51.444;7.460;2023-04-03T04:03:53;4.38;;;1.65;;
59054;SDS011;44845;51.444;7.460;2023-04-03T04:06:19;3.95;;;1.25;;
59054;SDS011;44845;51.444;7.460;2023-04-03T04:08:46;2.20;;;1.05;;
59054;SDS011;44845;51.444;7.460;2023-04-03T04:11:11;3.63;;;0.98;;
59054;SDS011;44845;51.444;7.460;2023-04-03T04:13:37;7.68;;;1.83;;
59054;SDS011;44845;51.444;7.460;2023-04-03T04:16:02;4.25;;;1.02;;
59054;SDS011;44845;51.444;7.460;2023-04-03T04:18:27;4.28;;;1.00;;
59054;SDS011;44845;51.444;7.460;2023-04-03T04:20:53;2.33;;;1.13;;
59054;SDS011;44845;51.444;7.460;2023-04-03T04:23:18;2.90;;;1.10;;
59054;SDS011;44845;51.444;7.460;2023-04-03T04:25:44;3.03;;;1.17;;
59054;SDS011;44845;51.444;7.460;2023-04-03T04:28:11;4.70;;;1.60;;
59054;SDS011;44845;51.444;7.460;2023-04-03T04:30:36;2.95;;;1.05;;
59054;SDS011;44845;51.444;7.460;2023-04-03T04:33:01;4.88;;;1.50;;
59054;SDS011;44845;51.444;7.460;2023-04-03T04:35:27;3.95;;;1.10;;
59054;SDS011;44845;51.444;7.460;2023-04-03T04:37:52;4.47;;;1.30;;
59054;SDS011;44845;51.444;7.460;2023-04-03T04:40:18;4.32;;;1.20;;
59054;SDS011;44845;51.444;7.460;2023-04-03T04:42:43;1.98;;;0.98;;
59054;SDS011;44845;51.444;7.460;2023-04-03T04:45:09;6.88;;;1.27;;
59054;SDS011;44845;51.444;7.460;2023-04-03T04:47:34;5.07;;;1.10;;
59054;SDS011;44845;51.444;7.460;2023-04-03T04:50:00;4.82;;;1.30;;
59054;SDS011;44845;51.444;7.460;2023-04-03T04:52:25;5.25;;;1.40;;
59054;SDS011;44845;51.444;7.460;2023-04-03T04:54:51;4.72;;;1.25;;
59054;SDS011;44845;51.444;7.460;2023-04-03T04:57:16;5.50;;;1.80;;
59054;SDS011;44845;51.444;7.460;2023-04-03T04:59:42;4.43;;;1.40;;
59054;SDS011;44845;51.444;7.460;2023-04-03T05:02:07;10.27;;;1.60;;
59054;SDS011;44845;51.444;7.460;2023-04-03T05:04:32;6.70;;;1.48;;
59054;SDS011;44845;51.444;7.460;2023-04-03T05:06:58;4.57;;;1.45;;
59054;SDS011;44845;51.444;7.460;2023-04-03T05:09:24;2.70;;;1.23;;
59054;SDS011;44845;51.444;7.460;2023-04-03T05:11:49;5.60;;;1.77;;
59054;SDS011;44845;51.444;7.460;2023-04-03T05:14:15;6.63;;;1.85;;
59054;SDS011;44845;51.444;7.460;2023-04-03T05:16:40;4.30;;;1.88;;
59054;SDS011;44845;51.444;7.460;2023-04-03T05:19:06;3.53;;;1.58;;
59054;SDS011;44845;51.444;7.460;2023-04-03T05:21:31;4.20;;;1.20;;
59054;SDS011;44845;51.444;7.460;2023-04-03T05:23:58;4.70;;;1.65;;
59054;SDS011;44845;51.444;7.460;2023-04-03T05:26:24;3.05;;;1.20;;
59054;SDS011;44845;51.444;7.460;2023-04-03T05:28:51;4.35;;;1.27;;
59054;SDS011;44845;51.444;7.460;2023-04-03T05:31:16;6.50;;;1.38;;
59054;SDS011;44845;51.444;7.460;2023-04-03T05:33:42;6.55;;;1.55;;
59054;SDS011;44845;51.444;7.460;2023-04-03T05:36:07;7.10;;;1.40;;
59054;SDS011;44845;51.444;7.460;2023-04-03T05:38:33;3.90;;;1.20;;
59054;SDS011;44845;51.444;7.460;2023-04-03T05:40:58;5.22;;;1.30;;
59054;SDS011;44845;51.444;7.460;2023-04-03T05:43:24;4.05;;;1.92;;
59054;SDS011;44845;51.444;7.460;2023-04-03T05:45:50;4.45;;;1.40;;
59054;SDS011;44845;51.444;7.460;2023-04-03T05:48:16;4.97;;;1.45;;
59054;SDS011;44845;51.444;7.460;2023-04-03T05:50:41;7.32;;;1.42;;
59054;SDS011;44845;51.444;7.460;2023-04-03T05:53:07;4.93;;;1.45;;
59054;SDS011;44845;51.444;7.460;2023-04-03T05:55:51;9.85;;;2.53;;
59054;SDS011;44845;51.444;7.460;2023-04-03T05:58:17;4.72;;;1.48;;
59054;SDS011;44845;51.444;7.460;2023-04-03T06:00:42;3.08;;;1.70;;
59054;SDS011;44845;51.444;7.460;2023-04-03T06:03:08;4.47;;;1.38;;
59054;SDS011;44845;51.444;7.460;2023-04-03T06:05:33;6.68;;;1.52;;
59054;SDS011;44845;51.444;7.460;2023-04-03T06:08:00;7.95;;;1.65;;
59054;SDS011;44845;51.444;7.460;2023-04-03T06:10:25;4.95;;;1.45;;
59054;SDS011;44845;51.444;7.460;2023-04-03T06:12:51;4.25;;;1.38;;
59054;SDS011;44845;51.444;7.460;2023-04-03T06:15:16;4.57;;;2.08;;
59054;SDS011;44845;51.444;7.460;2023-04-03T06:17:42;4.05;;;1.98;;
59054;SDS011;44845;51.444;7.460;2023-04-03T06:20:07;5.00;;;1.40;;
59054;SDS011;44845;51.444;7.460;2023-04-03T06:22:34;3.33;;;1.20;;
59054;SDS011;44845;51.444;7.460;2023-04-03T06:25:00;5.03;;;1.65;;
59054;SDS011;44845;51.444;7.460;2023-04-03T06:27:26;3.45;;;1.20;;
59054;SDS011;44845;51.444;7.460;2023-04-03T06:29:52;5.70;;;1.63;;
59054;SDS011;44845;51.444;7.460;2023-04-03T06:32:17;8.15;;;1.80;;
59054;SDS011;44845;51.444;7.460;2023-04-03T06:34:43;5.38;;;1.45;;
59054;SDS011;44845;51.444;7.460;2023-04-03T06:37:15;5.45;;;1.45;;
59054;SDS011;44845;51.444;7.460;2023-04-03T06:39:42;3.88;;;1.50;;
59054;SDS011;44845;51.444;7.460;2023-04-03T06:42:08;4.28;;;2.00;;
59054;SDS011;44845;51.444;7.460;2023-04-03T06:44:33;4.20;;;1.20;;
59054;SDS011;44845;51.444;7.460;2023-04-03T06:46:59;4.22;;;1.52;;
59054;SDS011;44845;51.444;7.460;2023-04-03T06:49:25;8.45;;;1.90;;
59054;SDS011;44845;51.444;7.460;2023-04-03T06:51:51;5.72;;;1.48;;
59054;SDS011;44845;51.444;7.460;2023-04-03T06:54:16;5.13;;;1.40;;
59054;SDS011;44845;51.444;7.460;2023-04-03T06:56:42;5.57;;;1.50;;
59054;SDS011;44845;51.444;7.460;2023-04-03T06:59:08;7.20;;;1.40;;
59054;SDS011;44845;51.444;7.460;2023-04-03T07:01:35;4.57;;;1.65;;
59054;SDS011;44845;51.444;7.460;2023-04-03T07:04:00;5.75;;;1.38;;
59054;SDS011;44845;51.444;7.460;2023-04-03T07:06:26;3.47;;;1.40;;
59054;SDS011;44845;51.444;7.460;2023-04-03T07:08:54;5.50;;;1.50;;
59054;SDS011;44845;51.444;7.460;2023-04-03T07:11:19;6.40;;;1.60;;
59054;SDS011;44845;51.444;7.460;2023-04-03T07:13:45;3.30;;;1.10;;
59054;SDS011;44845;51.444;7.460;2023-04-03T07:16:10;5.10;;;1.38;;
59054;SDS011;44845;51.444;7.460;2023-04-03T07:18:36;6.22;;;1.60;;
59054;SDS011;44845;51.444;7.460;2023-04-03T07:21:02;5.88;;;1.48;;
59054;SDS011;44845;51.444;7.460;2023-04-03T07:23:28;2.13;;;1.13;;
59054;SDS011;44845;51.444;7.460;2023-04-03T07:25:53;4.32;;;1.70;;
59054;SDS011;44845;51.444;7.460;2023-04-03T07:28:19;5.72;;;1.88;;
59054;SDS011;44845;51.444;7.460;2023-04-03T07:30:49;4.22;;;1.40;;
59054;SDS011;44845;51.444;7.460;2023-04-03T07:33:17;8.25;;;1.30;;
59054;SDS011;44845;51.444;7.460;2023-04-03T07:35:44;3.00;;;1.20;;
59054;SDS011;44845;51.444;7.460;2023-04-03T07:38:10;3.65;;;1.10;;
59054;SDS011;44845;51.444;7.460;2023-04-03T07:40:35;3.35;;;1.20;;
59054;SDS011;44845;51.444;7.460;2023-04-03T07:43:01;9.25;;;1.85;;
59054;SDS011;44845;51.444;7.460;2023-04-03T07:45:27;5.80;;;1.60;;
59054;SDS011;44845;51.444;7.460;2023-04-03T07:47:53;3.60;;;1.10;;
59054;SDS011;44845;51.444;7.460;2023-04-03T07:50:18;5.50;;;1.58;;
59054;SDS011;44845;51.444;7.460;2023-04-03T07:52:44;5.18;;;1.42;;
59054;SDS011;44845;51.444;7.460;2023-04-03T07:55:10;5.00;;;1.33;;
59054;SDS011;44845;51.444;7.460;2023-04-03T07:57:36;4.95;;;1.23;;
59054;SDS011;44845;51.444;7.460;2023-04-03T08:00:02;7.90;;;1.70;;
59054;SDS011;44845;51.444;7.460;2023-04-03T08:02:29;6.43;;;1.48;;
59054;SDS011;44845;51.444;7.460;2023-04-03T08:04:56;4.43;;;1.20;;
59054;SDS011;44845;51.444;7.460;2023-04-03T08:07:22;6.57;;;1.45;;
59054;SDS011;44845;51.444;7.460;2023-04-03T08:09:47;3.60;;;1.20;;
59054;SDS011;44845;51.444;7.460;2023-04-03T08:12:13;4.90;;;1.45;;
59054;SDS011;44845;51.444;7.460;2023-04-03T08:14:39;3.28;;;1.20;;
59054;SDS011;44845;51.444;7.460;2023-04-03T08:17:05;4.32;;;1.20;;
59054;SDS011;44845;51.444;7.460;2023-04-03T08:19:34;5.35;;;1.38;;
59054;SDS011;44845;51.444;7.460;2023-04-03T08:22:00;3.63;;;1.38;;
59054;SDS011;44845;51.444;7.460;2023-04-03T08:24:28;7.05;;;1.75;;
59054;SDS011;44845;51.444;7.460;2023-04-03T08:26:53;3.97;;;0.88;;
59054;SDS011;44845;51.444;7.460;2023-04-03T08:29:19;4.30;;;0.88;;
59054;SDS011;44845;51.444;7.460;2023-04-03T08:31:46;4.13;;;1.15;;
59054;SDS011;44845;51.444;7.460;2023-04-03T08:34:11;8.70;;;1.30;;
59054;SDS011;44845;51.444;7.460;2023-04-03T08:36:38;4.03;;;0.88;;
59054;SDS011;44845;51.444;7.460;2023-04-03T08:39:03;5.82;;;1.30;;
59054;SDS011;44845;51.444;7.460;2023-04-03T08:41:31;5.68;;;1.38;;
59054;SDS011;44845;51.444;7.460;2023-04-03T08:44:19;5.60;;;1.75;;
59054;SDS011;44845;51.444;7.460;2023-04-03T08:49:41;5.03;;;1.13;;
59054;SDS011;44845;51.444;7.460;2023-04-03T08:52:18;3.95;;;1.08;;
59054;SDS011;44845;51.444;7.460;2023-04-03T08:55:00;6.65;;;1.30;;
59054;SDS011;44845;51.444;7.460;2023-04-03T08:57:35;2.97;;;1.17;;
59054;SDS011;44845;51.444;7.460;2023-04-03T09:00:16;2.17;;;1.20;;
59054;SDS011;44845;51.444;7.460;2023-04-03T09:02:47;3.78;;;1.15;;
59054;SDS011;44845;51.444;7.460;2023-04-03T09:05:39;3.58;;;1.10;;
59054;SDS011;44845;51.444;7.460;2023-04-03T09:10:37;6.25;;;0.90;;
59054;SDS011;44845;51.444;7.460;2023-04-03T09:13:13;4.70;;;1.20;;
59054;SDS011;44845;51.444;7.460;2023-04-03T09:15:43;5.05;;;1.02;;
59054;SDS011;44845;51.444;7.460;2023-04-03T09:18:16;3.25;;;1.05;;
59054;SDS011;44845;51.444;7.460;2023-04-03T09:20:48;3.08;;;0.85;;
59054;SDS011;44845;51.444;7.460;2023-04-03T09:23:22;2.60;;;0.82;;
59054;SDS011;44845;51.444;7.460;2023-04-03T09:26:14;5.20;;;1.17;;
59054;SDS011;44845;51.444;7.460;2023-04-03T09:28:44;4.93;;;1.27;;
59054;SDS011;44845;51.444;7.460;2023-04-03T09:31:23;5.93;;;1.13;;
59054;SDS011;44845;51.444;7.460;2023-04-03T09:36:49;4.88;;;1.00;;
59054;SDS011;44845;51.444;7.460;2023-04-03T09:39:18;3.88;;;0.90;;
59054;SDS011;44845;51.444;7.460;2023-04-03T09:41:56;5.25;;;1.05;;
59054;SDS011;44845;51.444;7.460;2023-04-03T09:44:26;2.63;;;0.60;;
59054;SDS011;44845;51.444;7.460;2023-04-03T09:46:54;2.83;;;0.82;;
59054;SDS011;44845;51.444;7.460;2023-04-03T09:49:22;3.67;;;1.20;;
59054;SDS011;44845;51.444;7.460;2023-04-03T09:51:48;5.85;;;1.00;;
59054;SDS011;44845;51.444;7.460;2023-04-03T09:57:35;3.63;;;1.00;;
59054;SDS011;44845;51.444;7.460;2023-04-03T10:02:39;1.90;;;0.68;;
59054;SDS011;44845;51.444;7.460;2023-04-03T10:05:25;1.73;;;0.45;;
59054;SDS011;44845;51.444;7.460;2023-04-03T10:08:02;2.03;;;0.90;;
59054;SDS011;44845;51.444;7.460;2023-04-03T10:10:43;3.90;;;0.90;;
59054;SDS011;44845;51.444;7.460;2023-04-03T10:13:11;2.13;;;0.60;;
59054;SDS011;44845;51.444;7.460;2023-04-03T10:15:53;2.67;;;0.85;;
59054;SDS011;44845;51.444;7.460;2023-04-03T10:18:27;2.33;;;1.00;;
59054;SDS011;44845;51.444;7.460;2023-04-03T10:21:32;3.60;;;1.10;;
59054;SDS011;44845;51.444;7.460;2023-04-03T10:34:43;4.57;;;0.70;;
59054;SDS011;44845;51.444;7.460;2023-04-03T10:37:18;4.30;;;1.00;;
59054;SDS011;44845;51.444;7.460;2023-04-03T10:42:24;3.75;;;0.57;;
59054;SDS011;44845;51.444;7.460;2023-04-03T10:48:02;0.65;;;0.35;;
59054;SDS011;44845;51.444;7.460;2023-04-03T10:53:24;1.38;;;0.50;;
59054;SDS011;44845;51.444;7.460;2023-04-03T10:56:01;0.75;;;0.45;;
59054;SDS011;44845;51.444;7.460;2023-04-03T10:58:43;4.22;;;0.50;;
59054;SDS011;44845;51.444;7.460;2023-04-03T11:01:18;2.10;;;0.60;;
59054;SDS011;44845;51.444;7.460;2023-04-03T11:03:51;3.97;;;0.40;;
59054;SDS011;44845;51.444;7.460;2023-04-03T11:06:20;1.23;;;0.50;;
59054;SDS011;44845;51.444;7.460;2023-04-03T11:08:53;1.35;;;0.40;;
59054;SDS011;44845;51.444;7.460;2023-04-03T11:11:25;5.78;;;1.00;;
59054;SDS011;44845;51.444;7.460;2023-04-03T11:13:55;1.60;;;0.77;;
59054;SDS011;44845;51.444;7.460;2023-04-03T11:16:27;2.05;;;0.60;;
59054;SDS011;44845;51.444;7.460;2023-04-03T11:18:59;1.30;;;0.45;;
59054;SDS011;44845;51.444;7.460;2023-04-03T11:21:32;1.52;;;0.52;;
59054;SDS011;44845;51.444;7.460;2023-04-03T11:24:04;2.40;;;0.60;;
59054;SDS011;44845;51.444;7.460;2023-04-03T11:26:36;2.35;;;0.80;;
59054;SDS011;44845;51.444;7.460;2023-04-03T11:29:07;3.53;;;0.60;;
59054;SDS011;44845;51.444;7.460;2023-04-03T11:36:47;3.33;;;0.40;;
59054;SDS011;44845;51.444;7.460;2023-04-03T11:39:35;1.98;;;0.52;;
59054;SDS011;44845;51.444;7.460;2023-04-03T11:44:51;1.48;;;0.60;;
59054;SDS011;44845;51.444;7.460;2023-04-03T11:53:31;3.60;;;0.73;;
59054;SDS011;44845;51.444;7.460;2023-04-03T12:02:16;1.38;;;0.52;;
59054;SDS011;44845;51.444;7.460;2023-04-03T12:04:20;1.65;;;0.57;;
59054;SDS011;44845;51.444;7.460;2023-04-03T12:11:53;1.00;;;0.55;;
59054;SDS011;44845;51.444;7.460;2023-04-03T12:14:22;2.20;;;0.73;;
59054;SDS011;44845;51.444;7.460;2023-04-03T12:16:50;2.83;;;0.80;;
59054;SDS011;44845;51.444;7.460;2023-04-03T12:19:29;1.75;;;0.50;;
59054;SDS011;44845;51.444;7.460;2023-04-03T12:24:30;3.50;;;0.70;;
59054;SDS011;44845;51.444;7.460;2023-04-03T12:32:02;2.70;;;0.60;;
59054;SDS011;44845;51.444;7.460;2023-04-03T12:39:57;1.63;;;0.43;;
59054;SDS011;44845;51.444;7.460;2023-04-03T12:45:23;1.75;;;0.55;;
59054;SDS011;44845;51.444;7.460;2023-04-03T12:47:54;2.30;;;0.75;;
59054;SDS011;44845;51.444;7.460;2023-04-03T12:55:57;1.35;;;0.30;;
59054;SDS011;44845;51.444;7.460;2023-04-03T12:58:42;2.92;;;0.90;;
59054;SDS011;44845;51.444;7.460;2023-04-03T13:01:15;1.75;;;0.80;;
59054;SDS011;44845;51.444;7.460;2023-04-03T13:04:04;4.32;;;1.00;;
59054;SDS011;44845;51.444;7.460;2023-04-03T13:06:48;1.52;;;0.60;;
59054;SDS011;44845;51.444;7.460;2023-04-03T13:09:18;2.63;;;0.90;;
59054;SDS011;44845;51.444;7.460;2023-04-03T13:11:46;2.60;;;0.73;;
59054;SDS011;44845;51.444;7.460;2023-04-03T13:14:15;3.03;;;0.70;;
59054;SDS011;44845;51.444;7.460;2023-04-03T13:16:57;3.17;;;0.50;;
59054;SDS011;44845;51.444;7.460;2023-04-03T13:19:37;3.00;;;0.60;;
59054;SDS011;44845;51.444;7.460;2023-04-03T13:22:06;2.67;;;0.50;;
59054;SDS011;44845;51.444;7.460;2023-04-03T13:24:56;3.70;;;0.68;;
59054;SDS011;44845;51.444;7.460;2023-04-03T13:27:25;2.78;;;0.70;;
59054;SDS011;44845;51.444;7.460;2023-04-03T13:29:52;4.20;;;0.85;;
59054;SDS011;44845;51.444;7.460;2023-04-03T13:32:22;0.80;;;0.45;;
59054;SDS011;44845;51.444;7.460;2023-04-03T13:34:51;1.65;;;0.70;;
59054;SDS011;44845;51.444;7.460;2023-04-03T13:37:27;1.90;;;0.55;;
59054;SDS011;44845;51.444;7.460;2023-04-03T13:42:26;4.13;;;0.90;;
59054;SDS011;44845;51.444;7.460;2023-04-03T13:47:51;1.65;;;0.60;;
59054;SDS011;44845;51.444;7.460;2023-04-03T13:50:23;1.83;;;0.50;;
59054;SDS011;44845;51.444;7.460;2023-04-03T13:53:08;4.22;;;0.73;;
59054;SDS011;44845;51.444;7.460;2023-04-03T13:55:48;1.77;;;1.00;;
59054;SDS011;44845;51.444;7.460;2023-04-03T13:58:22;3.20;;;0.75;;
59054;SDS011;44845;51.444;7.460;2023-04-03T14:01:37;1.42;;;0.73;;
59054;SDS011;44845;51.444;7.460;2023-04-03T14:06:24;2.35;;;0.57;;
59054;SDS011;44845;51.444;7.460;2023-04-03T14:08:50;3.33;;;0.70;;
59054;SDS011;44845;51.444;7.460;2023-04-03T14:11:18;2.63;;;0.70;;
59054;SDS011;44845;51.444;7.460;2023-04-03T14:13:47;0.75;;;0.55;;
59054;SDS011;44845;51.444;7.460;2023-04-03T14:16:23;2.22;;;0.63;;
59054;SDS011;44845;51.444;7.460;2023-04-03T14:18:52;5.57;;;0.85;;
59054;SDS011;44845;51.444;7.460;2023-04-03T14:21:18;2.42;;;0.55;;
59054;SDS011;44845;51.444;7.460;2023-04-03T14:23:45;1.50;;;0.60;;
59054;SDS011;44845;51.444;7.460;2023-04-03T14:26:15;1.98;;;0.70;;
59054;SDS011;44845;51.444;7.460;2023-04-03T14:28:47;2.35;;;0.82;;
59054;SDS011;44845;51.444;7.460;2023-04-03T14:31:15;4.43;;;0.70;;
59054;SDS011;44845;51.444;7.460;2023-04-03T14:33:41;3.70;;;0.70;;
59054;SDS011;44845;51.444;7.460;2023-04-03T14:36:16;3.72;;;0.70;;
59054;SDS011;44845;51.444;7.460;2023-04-03T14:38:55;1.95;;;0.55;;
59054;SDS011;44845;51.444;7.460;2023-04-03T14:41:22;3.17;;;0.80;;
59054;SDS011;44845;51.444;7.460;2023-04-03T14:43:49;4.18;;;0.70;;
59054;SDS011;44845;51.444;7.460;2023-04-03T14:46:17;4.07;;;0.70;;
59054;SDS011;44845;51.444;7.460;2023-04-03T14:48:46;2.38;;;0.68;;
59054;SDS011;44845;51.444;7.460;2023-04-03T14:51:13;2.58;;;0.80;;
59054;SDS011;44845;51.444;7.460;2023-04-03T14:53:40;1.63;;;0.80;;
59054;SDS011;44845;51.444;7.460;2023-04-03T14:56:17;5.15;;;0.80;;
59054;SDS011;44845;51.444;7.460;2023-04-03T14:58:54;4.00;;;0.93;;
59054;SDS011;44845;51.444;7.460;2023-04-03T15:01:22;2.03;;;0.90;;
59054;SDS011;44845;51.444;7.460;2023-04-03T15:03:47;6.00;;;0.90;;
59054;SDS011;44845;51.444;7.460;2023-04-03T15:06:13;2.45;;;0.80;;
59054;SDS011;44845;51.444;7.460;2023-04-03T15:08:39;1.90;;;0.63;;
59054;SDS011;44845;51.444;7.460;2023-04-03T15:11:07;1.80;;;0.80;;
59054;SDS011;44845;51.444;7.460;2023-04-03T15:13:32;3.47;;;1.00;;
59054;SDS011;44845;51.444;7.460;2023-04-03T15:15:57;3.88;;;1.15;;
59054;SDS011;44845;51.444;7.460;2023-04-03T15:18:26;2.67;;;0.85;;
59054;SDS011;44845;51.444;7.460;2023-04-03T15:20:55;4.43;;;0.82;;
59054;SDS011;44845;51.444;7.460;2023-04-03T15:23:21;1.95;;;0.80;;
59054;SDS011;44845;51.444;7.460;2023-04-03T15:25:51;1.85;;;0.75;;
59054;SDS011;44845;51.444;7.460;2023-04-03T15:28:28;3.28;;;0.80;;
59054;SDS011;44845;51.444;7.460;2023-04-03T15:30:57;1.52;;;0.50;;
59054;SDS011;44845;51.444;7.460;2023-04-03T15:33:23;1.52;;;0.70;;
59054;SDS011;44845;51.444;7.460;2023-04-03T15:35:49;4.22;;;0.82;;
59054;SDS011;44845;51.444;7.460;2023-04-03T15:38:15;5.40;;;0.90;;
59054;SDS011;44845;51.444;7.460;2023-04-03T15:40:40;2.80;;;0.73;;
59054;SDS011;44845;51.444;7.460;2023-04-03T15:43:07;3.10;;;0.98;;
59054;SDS011;44845;51.444;7.460;2023-04-03T15:45:33;2.95;;;0.77;;
59054;SDS011;44845;51.444;7.460;2023-04-03T15:48:00;3.78;;;1.10;;
59054;SDS011;44845;51.444;7.460;2023-04-03T15:50:26;3.65;;;0.60;;
59054;SDS011;44845;51.444;7.460;2023-04-03T15:52:52;2.75;;;0.73;;
59054;SDS011;44845;51.444;7.460;2023-04-03T15:55:20;3.63;;;1.38;;
59054;SDS011;44845;51.444;7.460;2023-04-03T15:57:46;2.10;;;0.60;;
59054;SDS011;44845;51.444;7.460;2023-04-03T16:00:12;2.53;;;0.82;;
59054;SDS011;44845;51.444;7.460;2023-04-03T16:02:38;3.40;;;0.93;;
59054;SDS011;44845;51.444;7.460;2023-04-03T16:05:03;5.68;;;1.00;;
59054;SDS011;44845;51.444;7.460;2023-04-03T16:07:29;1.75;;;0.82;;
59054;SDS011;44845;51.444;7.460;2023-04-03T16:09:55;3.00;;;1.10;;
59054;SDS011;44845;51.444;7.460;2023-04-03T16:12:20;4.78;;;0.80;;
59054;SDS011;44845;51.444;7.460;2023-04-03T16:14:45;6.22;;;1.02;;
59054;SDS011;44845;51.444;7.460;2023-04-03T16:17:11;2.97;;;0.80;;
59054;SDS011;44845;51.444;7.460;2023-04-03T16:19:36;1.48;;;0.82;;
59054;SDS011;44845;51.444;7.460;2023-04-03T16:22:02;2.65;;;0.90;;
59054;SDS011;44845;51.444;7.460;2023-04-03T16:24:27;2.50;;;0.80;;
59054;SDS011;44845;51.444;7.460;2023-04-03T16:26:54;2.25;;;1.20;;
59054;SDS011;44845;51.444;7.460;2023-04-03T16:29:19;3.30;;;0.80;;
59054;SDS011;44845;51.444;7.460;2023-04-03T16:31:45;3.47;;;0.93;;
59054;SDS011;44845;51.444;7.460;2023-04-03T16:34:10;4.15;;;0.82;;
59054;SDS011;44845;51.444;7.460;2023-04-03T16:36:36;3.30;;;0.85;;